sensor_id;sensor_type;location;lat;lon;timestamp;P1;durP1;ratioP1;P2;durP2;ratioP2
57443;SDS011;43289;52.962;6.196;2023-04-03T00:00:30;2.25;;;0.88;;
57443;SDS011;43289;52.962;6.196;2023-04-03T00:02:56;4.05;;;1.05;;
57443;SDS011;43289;52.962;6.196;2023-04-03T00:05:22;5.43;;;1.00;;
57443;SDS011;43289;52.962;6.196;2023-04-03T00:07:51;1.58;;;0.90;;
57443;SDS011;43289;52.962;6.196;2023-04-03T00:10:17;3.85;;;1.25;;
57443;SDS011;43289;52.962;6.196;2023-04-03T00:12:43;3.42;;;1.02;;
57443;SDS011;43289;52.962;6.196;2023-04-03T00:15:16;1.63;;;0.95;;
57443;SDS011;43289;52.962;6.196;2023-04-03T00:17:42;3.20;;;1.10;;
57443;SDS011;43289;52.962;6.196;2023-04-03T00:20:09;2.67;;;1.05;;
57443;SDS011;43289;52.962;6.196;2023-04-03T00:22:35;5.45;;;2.05;;
57443;SDS011;43289;52.962;6.196;2023-04-03T00:25:01;2.47;;;1.00;;
57443;SDS011;43289;52.962;6.196;2023-04-03T00:27:27;3.17;;;1.20;;
57443;SDS011;43289;52.962;6.196;2023-04-03T00:29:53;2.13;;;0.98;;
57443;SDS011;43289;52.962;6.196;2023-04-03T00:32:19;3.00;;;1.10;;
57443;SDS011;43289;52.962;6.196;2023-04-03T00:34:46;5.63;;;1.17;;
57443;SDS011;43289;52.962;6.196;2023-04-03T00:37:12;3.08;;;1.00;;
57443;SDS011;43289;52.962;6.196;2023-04-03T00:39:38;2.70;;;1.10;;
57443;SDS011;43289;52.962;6.196;2023-04-03T00:42:04;1.95;;;1.00;;
57443;SDS011;43289;52.962;6.196;2023-04-03T00:46:59;1.35;;;0.80;;
57443;SDS011;43289;52.962;6.196;2023-04-03T00:49:26;1.45;;;1.00;;
57443;SDS011;43289;52.962;6.196;2023-04-03T00:51:52;2.95;;;1.30;;
57443;SDS011;43289;52.962;6.196;2023-04-03T00:54:18;4.40;;;1.50;;
57443;SDS011;43289;52.962;6.196;2023-04-03T00:56:44;2.75;;;1.02;;
57443;SDS011;43289;52.962;6.196;2023-04-03T00:59:15;3.55;;;1.23;;
57443;SDS011;43289;52.962;6.196;2023-04-03T01:01:42;2.33;;;1.10;;
57443;SDS011;43289;52.962;6.196;2023-04-03T01:04:25;2.38;;;1.42;;
57443;SDS011;43289;52.962;6.196;2023-04-03T01:09:41;4.32;;;1.10;;
57443;SDS011;43289;52.962;6.196;2023-04-03T01:12:27;2.20;;;0.98;;
57443;SDS011;43289;52.962;6.196;2023-04-03T01:14:59;1.42;;;1.10;;
57443;SDS011;43289;52.962;6.196;2023-04-03T01:17:59;3.58;;;1.40;;
57443;SDS011;43289;52.962;6.196;2023-04-03T01:25:50;2.60;;;1.15;;
57443;SDS011;43289;52.962;6.196;2023-04-03T01:28:17;2.65;;;1.00;;
57443;SDS011;43289;52.962;6.196;2023-04-03T01:33:19;2.08;;;0.95;;
57443;SDS011;43289;52.962;6.196;2023-04-03T01:35:45;3.67;;;1.50;;
57443;SDS011;43289;52.962;6.196;2023-04-03T01:38:12;2.38;;;1.15;;
57443;SDS011;43289;52.962;6.196;2023-04-03T01:40:38;2.70;;;1.10;;
57443;SDS011;43289;52.962;6.196;2023-04-03T01:43:04;2.55;;;1.17;;
57443;SDS011;43289;52.962;6.196;2023-04-03T01:48:05;4.88;;;1.30;;
57443;SDS011;43289;52.962;6.196;2023-04-03T01:50:31;5.75;;;1.23;;
57443;SDS011;43289;52.962;6.196;2023-04-03T01:53:07;2.47;;;1.13;;
57443;SDS011;43289;52.962;6.196;2023-04-03T01:55:33;3.78;;;2.00;;
57443;SDS011;43289;52.962;6.196;2023-04-03T01:57:59;2.78;;;1.40;;
57443;SDS011;43289;52.962;6.196;2023-04-03T02:00:28;3.20;;;1.40;;
57443;SDS011;43289;52.962;6.196;2023-04-03T02:02:54;3.65;;;1.27;;
57443;SDS011;43289;52.962;6.196;2023-04-03T02:05:20;1.95;;;1.20;;
57443;SDS011;43289;52.962;6.196;2023-04-03T02:07:46;4.13;;;1.52;;
57443;SDS011;43289;52.962;6.196;2023-04-03T02:10:13;2.70;;;1.40;;
57443;SDS011;43289;52.962;6.196;2023-04-03T02:12:56;3.35;;;1.63;;
57443;SDS011;43289;52.962;6.196;2023-04-03T02:15:22;4.25;;;1.40;;
57443;SDS011;43289;52.962;6.196;2023-04-03T02:17:48;3.92;;;1.35;;
57443;SDS011;43289;52.962;6.196;2023-04-03T02:20:14;3.03;;;1.40;;
57443;SDS011;43289;52.962;6.196;2023-04-03T02:22:40;2.28;;;1.40;;
57443;SDS011;43289;52.962;6.196;2023-04-03T02:25:07;3.25;;;1.25;;
57443;SDS011;43289;52.962;6.196;2023-04-03T02:27:33;4.28;;;1.50;;
57443;SDS011;43289;52.962;6.196;2023-04-03T02:30:00;5.07;;;1.55;;
57443;SDS011;43289;52.962;6.196;2023-04-03T02:32:26;3.17;;;1.52;;
57443;SDS011;43289;52.962;6.196;2023-04-03T02:34:52;4.25;;;1.40;;
57443;SDS011;43289;52.962;6.196;2023-04-03T02:37:18;3.97;;;1.55;;
57443;SDS011;43289;52.962;6.196;2023-04-03T02:39:44;2.85;;;1.20;;
57443;SDS011;43289;52.962;6.196;2023-04-03T02:42:10;3.55;;;1.42;;
57443;SDS011;43289;52.962;6.196;2023-04-03T02:44:36;1.85;;;1.10;;
57443;SDS011;43289;52.962;6.196;2023-04-03T02:47:04;3.53;;;1.75;;
57443;SDS011;43289;52.962;6.196;2023-04-03T02:49:30;5.95;;;1.75;;
57443;SDS011;43289;52.962;6.196;2023-04-03T02:51:57;2.85;;;1.50;;
57443;SDS011;43289;52.962;6.196;2023-04-03T02:54:23;4.43;;;1.60;;
57443;SDS011;43289;52.962;6.196;2023-04-03T02:56:52;4.72;;;1.75;;
57443;SDS011;43289;52.962;6.196;2023-04-03T02:59:19;2.78;;;1.55;;
57443;SDS011;43289;52.962;6.196;2023-04-03T03:01:45;2.90;;;1.42;;
57443;SDS011;43289;52.962;6.196;2023-04-03T03:04:11;3.55;;;1.40;;
57443;SDS011;43289;52.962;6.196;2023-04-03T03:06:37;5.65;;;1.63;;
57443;SDS011;43289;52.962;6.196;2023-04-03T03:09:04;6.07;;;1.60;;
57443;SDS011;43289;52.962;6.196;2023-04-03T03:11:30;2.95;;;1.40;;
57443;SDS011;43289;52.962;6.196;2023-04-03T03:13:56;5.20;;;1.77;;
57443;SDS011;43289;52.962;6.196;2023-04-03T03:16:22;4.60;;;1.77;;
57443;SDS011;43289;52.962;6.196;2023-04-03T03:18:48;6.10;;;1.90;;
57443;SDS011;43289;52.962;6.196;2023-04-03T03:21:14;4.63;;;2.03;;
57443;SDS011;43289;52.962;6.196;2023-04-03T03:23:40;6.38;;;1.77;;
57443;SDS011;43289;52.962;6.196;2023-04-03T03:26:07;6.28;;;1.80;;
57443;SDS011;43289;52.962;6.196;2023-04-03T03:28:35;6.05;;;1.90;;
57443;SDS011;43289;52.962;6.196;2023-04-03T03:31:01;5.18;;;1.70;;
57443;SDS011;43289;52.962;6.196;2023-04-03T03:33:27;4.10;;;1.75;;
57443;SDS011;43289;52.962;6.196;2023-04-03T03:38:27;6.47;;;2.03;;
57443;SDS011;43289;52.962;6.196;2023-04-03T03:40:53;4.13;;;1.73;;
57443;SDS011;43289;52.962;6.196;2023-04-03T03:43:19;2.90;;;1.52;;
57443;SDS011;43289;52.962;6.196;2023-04-03T03:45:46;5.13;;;1.95;;
57443;SDS011;43289;52.962;6.196;2023-04-03T03:48:15;5.65;;;1.55;;
57443;SDS011;43289;52.962;6.196;2023-04-03T03:50:41;3.72;;;1.65;;
57443;SDS011;43289;52.962;6.196;2023-04-03T03:53:07;5.47;;;1.98;;
57443;SDS011;43289;52.962;6.196;2023-04-03T03:55:33;3.70;;;1.67;;
57443;SDS011;43289;52.962;6.196;2023-04-03T03:57:59;2.83;;;1.75;;
57443;SDS011;43289;52.962;6.196;2023-04-03T04:00:26;7.40;;;2.60;;
57443;SDS011;43289;52.962;6.196;2023-04-03T04:02:53;4.70;;;1.98;;
57443;SDS011;43289;52.962;6.196;2023-04-03T04:05:19;6.22;;;1.95;;
57443;SDS011;43289;52.962;6.196;2023-04-03T04:07:48;5.63;;;1.85;;
57443;SDS011;43289;52.962;6.196;2023-04-03T04:10:14;7.78;;;2.17;;
57443;SDS011;43289;52.962;6.196;2023-04-03T04:12:40;5.47;;;1.70;;
57443;SDS011;43289;52.962;6.196;2023-04-03T04:15:07;3.08;;;1.55;;
57443;SDS011;43289;52.962;6.196;2023-04-03T04:17:33;5.93;;;1.90;;
57443;SDS011;43289;52.962;6.196;2023-04-03T04:20:00;4.57;;;1.80;;
57443;SDS011;43289;52.962;6.196;2023-04-03T04:22:26;3.90;;;1.60;;
57443;SDS011;43289;52.962;6.196;2023-04-03T04:24:52;3.15;;;1.55;;
57443;SDS011;43289;52.962;6.196;2023-04-03T04:27:18;5.90;;;1.90;;
57443;SDS011;43289;52.962;6.196;2023-04-03T04:29:44;3.53;;;1.80;;
57443;SDS011;43289;52.962;6.196;2023-04-03T04:32:10;5.43;;;1.95;;
57443;SDS011;43289;52.962;6.196;2023-04-03T04:34:36;6.88;;;1.65;;
57443;SDS011;43289;52.962;6.196;2023-04-03T04:37:02;4.82;;;2.30;;
57443;SDS011;43289;52.962;6.196;2023-04-03T04:39:28;5.55;;;2.05;;
57443;SDS011;43289;52.962;6.196;2023-04-03T04:41:54;6.78;;;2.22;;
57443;SDS011;43289;52.962;6.196;2023-04-03T04:44:20;5.25;;;1.90;;
57443;SDS011;43289;52.962;6.196;2023-04-03T04:46:46;5.50;;;1.75;;
57443;SDS011;43289;52.962;6.196;2023-04-03T04:49:12;7.00;;;2.28;;
57443;SDS011;43289;52.962;6.196;2023-04-03T04:51:38;4.68;;;1.90;;
57443;SDS011;43289;52.962;6.196;2023-04-03T04:54:04;6.50;;;2.60;;
57443;SDS011;43289;52.962;6.196;2023-04-03T04:56:30;4.43;;;2.10;;
57443;SDS011;43289;52.962;6.196;2023-04-03T04:58:56;5.30;;;2.15;;
57443;SDS011;43289;52.962;6.196;2023-04-03T05:01:22;5.82;;;2.45;;
57443;SDS011;43289;52.962;6.196;2023-04-03T05:03:48;3.80;;;1.90;;
57443;SDS011;43289;52.962;6.196;2023-04-03T05:06:14;7.60;;;2.15;;
57443;SDS011;43289;52.962;6.196;2023-04-03T05:08:40;6.35;;;2.20;;
57443;SDS011;43289;52.962;6.196;2023-04-03T05:11:06;6.45;;;2.70;;
57443;SDS011;43289;52.962;6.196;2023-04-03T05:13:38;10.05;;;2.67;;
57443;SDS011;43289;52.962;6.196;2023-04-03T05:16:04;7.35;;;2.55;;
57443;SDS011;43289;52.962;6.196;2023-04-03T05:18:30;7.45;;;2.58;;
57443;SDS011;43289;52.962;6.196;2023-04-03T05:21:04;5.05;;;2.72;;
57443;SDS011;43289;52.962;6.196;2023-04-03T05:23:30;5.72;;;3.13;;
57443;SDS011;43289;52.962;6.196;2023-04-03T05:25:56;6.78;;;2.20;;
57443;SDS011;43289;52.962;6.196;2023-04-03T05:28:25;6.85;;;3.42;;
57443;SDS011;43289;52.962;6.196;2023-04-03T05:30:55;5.65;;;2.65;;
57443;SDS011;43289;52.962;6.196;2023-04-03T05:33:21;9.18;;;2.35;;
57443;SDS011;43289;52.962;6.196;2023-04-03T05:35:47;6.15;;;3.05;;
57443;SDS011;43289;52.962;6.196;2023-04-03T05:38:14;4.30;;;2.30;;
57443;SDS011;43289;52.962;6.196;2023-04-03T05:40:40;6.45;;;2.75;;
57443;SDS011;43289;52.962;6.196;2023-04-03T05:43:06;5.00;;;2.67;;
57443;SDS011;43289;52.962;6.196;2023-04-03T05:48:07;5.10;;;2.42;;
57443;SDS011;43289;52.962;6.196;2023-04-03T05:50:33;6.55;;;2.53;;
57443;SDS011;43289;52.962;6.196;2023-04-03T05:53:01;6.05;;;2.92;;
57443;SDS011;43289;52.962;6.196;2023-04-03T05:55:27;9.50;;;2.88;;
57443;SDS011;43289;52.962;6.196;2023-04-03T05:57:53;7.68;;;2.83;;
57443;SDS011;43289;52.962;6.196;2023-04-03T06:00:21;8.43;;;3.05;;
57443;SDS011;43289;52.962;6.196;2023-04-03T06:02:47;4.13;;;2.20;;
57443;SDS011;43289;52.962;6.196;2023-04-03T06:05:13;7.63;;;2.63;;
57443;SDS011;43289;52.962;6.196;2023-04-03T06:07:39;12.65;;;2.80;;
57443;SDS011;43289;52.962;6.196;2023-04-03T06:10:20;7.97;;;3.08;;
57443;SDS011;43289;52.962;6.196;2023-04-03T06:12:46;5.47;;;2.88;;
57443;SDS011;43289;52.962;6.196;2023-04-03T06:15:12;6.97;;;2.97;;
57443;SDS011;43289;52.962;6.196;2023-04-03T06:17:38;9.73;;;3.08;;
57443;SDS011;43289;52.962;6.196;2023-04-03T06:20:04;5.18;;;3.25;;
57443;SDS011;43289;52.962;6.196;2023-04-03T06:22:30;5.90;;;3.00;;
57443;SDS011;43289;52.962;6.196;2023-04-03T06:24:56;6.25;;;2.80;;
57443;SDS011;43289;52.962;6.196;2023-04-03T06:27:23;12.25;;;2.97;;
57443;SDS011;43289;52.962;6.196;2023-04-03T06:29:49;6.15;;;2.58;;
57443;SDS011;43289;52.962;6.196;2023-04-03T06:32:15;7.88;;;2.97;;
57443;SDS011;43289;52.962;6.196;2023-04-03T06:34:41;8.25;;;2.53;;
57443;SDS011;43289;52.962;6.196;2023-04-03T06:37:17;6.30;;;2.17;;
57443;SDS011;43289;52.962;6.196;2023-04-03T06:39:44;7.45;;;2.25;;
57443;SDS011;43289;52.962;6.196;2023-04-03T06:42:11;7.70;;;2.30;;
57443;SDS011;43289;52.962;6.196;2023-04-03T06:44:37;5.22;;;2.38;;
57443;SDS011;43289;52.962;6.196;2023-04-03T06:47:03;5.82;;;2.22;;
57443;SDS011;43289;52.962;6.196;2023-04-03T06:49:32;6.38;;;2.78;;
57443;SDS011;43289;52.962;6.196;2023-04-03T06:51:58;4.25;;;2.15;;
57443;SDS011;43289;52.962;6.196;2023-04-03T06:54:24;8.70;;;2.92;;
57443;SDS011;43289;52.962;6.196;2023-04-03T06:56:50;8.00;;;2.53;;
57443;SDS011;43289;52.962;6.196;2023-04-03T06:59:17;7.25;;;2.60;;
57443;SDS011;43289;52.962;6.196;2023-04-03T07:01:44;8.48;;;3.70;;
57443;SDS011;43289;52.962;6.196;2023-04-03T07:04:10;6.55;;;2.30;;
57443;SDS011;43289;52.962;6.196;2023-04-03T07:06:36;5.55;;;2.17;;
57443;SDS011;43289;52.962;6.196;2023-04-03T07:09:03;4.43;;;2.20;;
57443;SDS011;43289;52.962;6.196;2023-04-03T07:11:30;5.00;;;2.55;;
57443;SDS011;43289;52.962;6.196;2023-04-03T07:13:56;6.78;;;2.33;;
57443;SDS011;43289;52.962;6.196;2023-04-03T07:16:22;6.18;;;2.80;;
57443;SDS011;43289;52.962;6.196;2023-04-03T07:18:48;4.93;;;2.25;;
57443;SDS011;43289;52.962;6.196;2023-04-03T07:21:14;7.82;;;2.22;;
57443;SDS011;43289;52.962;6.196;2023-04-03T07:23:40;6.40;;;2.40;;
57443;SDS011;43289;52.962;6.196;2023-04-03T07:26:07;5.15;;;2.45;;
57443;SDS011;43289;52.962;6.196;2023-04-03T07:28:33;8.73;;;2.40;;
57443;SDS011;43289;52.962;6.196;2023-04-03T07:33:38;5.00;;;1.83;;
57443;SDS011;43289;52.962;6.196;2023-04-03T07:36:05;6.53;;;2.20;;
57443;SDS011;43289;52.962;6.196;2023-04-03T07:38:34;6.00;;;2.00;;
57443;SDS011;43289;52.962;6.196;2023-04-03T07:41:01;7.40;;;2.05;;
57443;SDS011;43289;52.962;6.196;2023-04-03T07:43:27;7.45;;;2.33;;
57443;SDS011;43289;52.962;6.196;2023-04-03T07:45:53;4.88;;;1.75;;
57443;SDS011;43289;52.962;6.196;2023-04-03T07:48:19;2.45;;;1.42;;
57443;SDS011;43289;52.962;6.196;2023-04-03T07:50:46;5.10;;;1.70;;
57443;SDS011;43289;52.962;6.196;2023-04-03T07:53:12;6.18;;;2.13;;
57443;SDS011;43289;52.962;6.196;2023-04-03T07:55:39;4.07;;;1.80;;
57443;SDS011;43289;52.962;6.196;2023-04-03T07:58:09;7.70;;;2.30;;
57443;SDS011;43289;52.962;6.196;2023-04-03T08:00:36;5.40;;;1.88;;
57443;SDS011;43289;52.962;6.196;2023-04-03T08:03:02;5.47;;;1.50;;
57443;SDS011;43289;52.962;6.196;2023-04-03T08:05:28;4.45;;;1.67;;
57443;SDS011;43289;52.962;6.196;2023-04-03T08:07:54;4.05;;;1.52;;
57443;SDS011;43289;52.962;6.196;2023-04-03T08:10:20;3.75;;;1.80;;
57443;SDS011;43289;52.962;6.196;2023-04-03T08:12:46;5.07;;;2.22;;
57443;SDS011;43289;52.962;6.196;2023-04-03T08:15:13;5.40;;;1.70;;
57443;SDS011;43289;52.962;6.196;2023-04-03T08:17:39;3.42;;;1.85;;
57443;SDS011;43289;52.962;6.196;2023-04-03T08:20:06;3.92;;;1.60;;
57443;SDS011;43289;52.962;6.196;2023-04-03T08:22:34;5.10;;;1.88;;
57443;SDS011;43289;52.962;6.196;2023-04-03T08:25:00;4.45;;;1.73;;
57443;SDS011;43289;52.962;6.196;2023-04-03T08:27:27;3.25;;;1.55;;
57443;SDS011;43289;52.962;6.196;2023-04-03T08:29:53;5.70;;;2.40;;
57443;SDS011;43289;52.962;6.196;2023-04-03T08:32:19;2.63;;;1.50;;
57443;SDS011;43289;52.962;6.196;2023-04-03T08:34:46;3.97;;;1.58;;
57443;SDS011;43289;52.962;6.196;2023-04-03T08:37:12;3.78;;;1.50;;
57443;SDS011;43289;52.962;6.196;2023-04-03T08:39:38;4.03;;;1.60;;
57443;SDS011;43289;52.962;6.196;2023-04-03T08:42:13;5.20;;;1.40;;
57443;SDS011;43289;52.962;6.196;2023-04-03T08:44:47;2.90;;;1.52;;
57443;SDS011;43289;52.962;6.196;2023-04-03T08:49:42;2.90;;;1.20;;
57443;SDS011;43289;52.962;6.196;2023-04-03T08:52:14;2.45;;;1.25;;
57443;SDS011;43289;52.962;6.196;2023-04-03T08:57:13;4.47;;;1.50;;
57443;SDS011;43289;52.962;6.196;2023-04-03T08:59:39;4.00;;;1.40;;
57443;SDS011;43289;52.962;6.196;2023-04-03T09:04:51;3.58;;;1.30;;
57443;SDS011;43289;52.962;6.196;2023-04-03T09:07:37;3.00;;;1.30;;
57443;SDS011;43289;52.962;6.196;2023-04-03T09:10:06;3.75;;;1.27;;
57443;SDS011;43289;52.962;6.196;2023-04-03T09:12:42;4.43;;;1.50;;
57443;SDS011;43289;52.962;6.196;2023-04-03T09:15:18;3.38;;;1.63;;
57443;SDS011;43289;52.962;6.196;2023-04-03T09:20:15;3.58;;;1.23;;
57443;SDS011;43289;52.962;6.196;2023-04-03T09:22:43;2.92;;;1.30;;
57443;SDS011;43289;52.962;6.196;2023-04-03T09:27:40;6.50;;;1.70;;
57443;SDS011;43289;52.962;6.196;2023-04-03T09:30:08;4.70;;;1.33;;
57443;SDS011;43289;52.962;6.196;2023-04-03T09:32:38;3.47;;;1.65;;
57443;SDS011;43289;52.962;6.196;2023-04-03T09:35:06;3.65;;;1.35;;
57443;SDS011;43289;52.962;6.196;2023-04-03T09:37:38;3.08;;;1.13;;
57443;SDS011;43289;52.962;6.196;2023-04-03T09:40:04;3.75;;;1.20;;
57443;SDS011;43289;52.962;6.196;2023-04-03T09:42:31;3.72;;;1.25;;
57443;SDS011;43289;52.962;6.196;2023-04-03T09:44:58;4.68;;;1.85;;
57443;SDS011;43289;52.962;6.196;2023-04-03T09:47:26;3.00;;;1.23;;
57443;SDS011;43289;52.962;6.196;2023-04-03T09:52:41;3.63;;;1.27;;
57443;SDS011;43289;52.962;6.196;2023-04-03T09:55:08;4.32;;;1.48;;
57443;SDS011;43289;52.962;6.196;2023-04-03T09:57:39;2.50;;;0.90;;
57443;SDS011;43289;52.962;6.196;2023-04-03T10:00:19;1.95;;;0.90;;
57443;SDS011;43289;52.962;6.196;2023-04-03T10:02:48;2.42;;;1.00;;
57443;SDS011;43289;52.962;6.196;2023-04-03T10:10:42;1.95;;;1.20;;
57443;SDS011;43289;52.962;6.196;2023-04-03T10:13:15;3.15;;;1.20;;
57443;SDS011;43289;52.962;6.196;2023-04-03T10:15:51;2.00;;;0.88;;
57443;SDS011;43289;52.962;6.196;2023-04-03T10:21:06;1.95;;;0.95;;
57443;SDS011;43289;52.962;6.196;2023-04-03T10:23:46;3.28;;;1.25;;
57443;SDS011;43289;52.962;6.196;2023-04-03T10:26:34;4.05;;;0.90;;
57443;SDS011;43289;52.962;6.196;2023-04-03T10:29:09;4.07;;;1.25;;
57443;SDS011;43289;52.962;6.196;2023-04-03T10:31:51;2.88;;;1.00;;
57443;SDS011;43289;52.962;6.196;2023-04-03T10:34:31;3.17;;;1.05;;
57443;SDS011;43289;52.962;6.196;2023-04-03T10:44:56;1.58;;;0.90;;
57443;SDS011;43289;52.962;6.196;2023-04-03T10:47:34;2.95;;;1.10;;
57443;SDS011;43289;52.962;6.196;2023-04-03T10:52:43;2.60;;;1.10;;
57443;SDS011;43289;52.962;6.196;2023-04-03T10:57:39;2.92;;;1.00;;
57443;SDS011;43289;52.962;6.196;2023-04-03T11:00:30;2.53;;;1.00;;
57443;SDS011;43289;52.962;6.196;2023-04-03T11:02:54;2.22;;;1.13;;
57443;SDS011;43289;52.962;6.196;2023-04-03T11:07:49;2.13;;;0.70;;
57443;SDS011;43289;52.962;6.196;2023-04-03T11:12:56;2.28;;;0.93;;
57443;SDS011;43289;52.962;6.196;2023-04-03T11:15:24;1.33;;;0.90;;
57443;SDS011;43289;52.962;6.196;2023-04-03T11:20:35;2.70;;;0.80;;
57443;SDS011;43289;52.962;6.196;2023-04-03T11:23:04;1.35;;;0.82;;
57443;SDS011;43289;52.962;6.196;2023-04-03T11:25:34;1.42;;;1.00;;
57443;SDS011;43289;52.962;6.196;2023-04-03T11:28:04;3.28;;;1.30;;
57443;SDS011;43289;52.962;6.196;2023-04-03T11:35:51;2.20;;;1.00;;
57443;SDS011;43289;52.962;6.196;2023-04-03T11:38:21;2.05;;;1.10;;
57443;SDS011;43289;52.962;6.196;2023-04-03T11:40:47;1.58;;;0.85;;
57443;SDS011;43289;52.962;6.196;2023-04-03T11:43:28;2.45;;;0.95;;
57443;SDS011;43289;52.962;6.196;2023-04-03T11:46:02;2.67;;;0.90;;
57443;SDS011;43289;52.962;6.196;2023-04-03T11:51:40;2.13;;;1.02;;
57443;SDS011;43289;52.962;6.196;2023-04-03T11:53:47;3.55;;;0.80;;
57443;SDS011;43289;52.962;6.196;2023-04-03T11:59:14;3.42;;;0.90;;
57443;SDS011;43289;52.962;6.196;2023-04-03T12:01:56;1.42;;;0.95;;
57443;SDS011;43289;52.962;6.196;2023-04-03T12:04:24;1.20;;;0.80;;
57443;SDS011;43289;52.962;6.196;2023-04-03T12:06:58;2.30;;;0.93;;
57443;SDS011;43289;52.962;6.196;2023-04-03T12:09:26;2.53;;;0.80;;
57443;SDS011;43289;52.962;6.196;2023-04-03T12:11:54;2.22;;;1.20;;
57443;SDS011;43289;52.962;6.196;2023-04-03T12:14:29;2.05;;;1.13;;
57443;SDS011;43289;52.962;6.196;2023-04-03T12:16:55;2.95;;;1.20;;
57443;SDS011;43289;52.962;6.196;2023-04-03T12:19:30;2.15;;;1.33;;
57443;SDS011;43289;52.962;6.196;2023-04-03T12:24:25;2.78;;;1.00;;
57443;SDS011;43289;52.962;6.196;2023-04-03T12:29:43;1.88;;;1.02;;
57443;SDS011;43289;52.962;6.196;2023-04-03T12:40:42;2.97;;;1.15;;
57443;SDS011;43289;52.962;6.196;2023-04-03T12:48:50;4.10;;;1.55;;
57443;SDS011;43289;52.962;6.196;2023-04-03T14:34:06;4.45;;;1.70;;
57443;SDS011;43289;52.962;6.196;2023-04-03T14:36:32;3.35;;;1.42;;
57443;SDS011;43289;52.962;6.196;2023-04-03T14:38:59;3.08;;;1.40;;
57443;SDS011;43289;52.962;6.196;2023-04-03T14:41:26;2.88;;;1.50;;
57443;SDS011;43289;52.962;6.196;2023-04-03T14:43:52;4.13;;;1.63;;
57443;SDS011;43289;52.962;6.196;2023-04-03T14:46:21;3.05;;;1.42;;
57443;SDS011;43289;52.962;6.196;2023-04-03T14:48:48;2.95;;;1.38;;
57443;SDS011;43289;52.962;6.196;2023-04-03T14:51:15;2.78;;;1.40;;
57443;SDS011;43289;52.962;6.196;2023-04-03T14:53:41;3.33;;;1.40;;
57443;SDS011;43289;52.962;6.196;2023-04-03T14:56:12;5.35;;;1.88;;
57443;SDS011;43289;52.962;6.196;2023-04-03T14:58:40;2.15;;;1.45;;
57443;SDS011;43289;52.962;6.196;2023-04-03T15:01:08;4.95;;;1.65;;
57443;SDS011;43289;52.962;6.196;2023-04-03T15:03:35;2.90;;;1.30;;
57443;SDS011;43289;52.962;6.196;2023-04-03T15:06:01;2.83;;;1.48;;
57443;SDS011;43289;52.962;6.196;2023-04-03T15:08:27;4.25;;;1.60;;
57443;SDS011;43289;52.962;6.196;2023-04-03T15:10:56;3.97;;;1.30;;
57443;SDS011;43289;52.962;6.196;2023-04-03T15:13:23;2.97;;;1.45;;
57443;SDS011;43289;52.962;6.196;2023-04-03T15:15:50;3.05;;;1.27;;
57443;SDS011;43289;52.962;6.196;2023-04-03T15:18:17;3.08;;;1.23;;
57443;SDS011;43289;52.962;6.196;2023-04-03T15:20:45;3.20;;;1.45;;
57443;SDS011;43289;52.962;6.196;2023-04-03T15:23:12;4.05;;;1.30;;
57443;SDS011;43289;52.962;6.196;2023-04-03T15:25:40;2.88;;;1.25;;
57443;SDS011;43289;52.962;6.196;2023-04-03T15:28:08;2.40;;;1.17;;
57443;SDS011;43289;52.962;6.196;2023-04-03T15:30:35;3.45;;;1.40;;
57443;SDS011;43289;52.962;6.196;2023-04-03T15:33:02;2.35;;;1.20;;
57443;SDS011;43289;52.962;6.196;2023-04-03T15:35:28;2.80;;;1.40;;
57443;SDS011;43289;52.962;6.196;2023-04-03T15:37:54;2.35;;;1.35;;
57443;SDS011;43289;52.962;6.196;2023-04-03T15:40:20;3.90;;;1.35;;
57443;SDS011;43289;52.962;6.196;2023-04-03T15:42:46;4.32;;;1.27;;
57443;SDS011;43289;52.962;6.196;2023-04-03T15:45:12;2.60;;;1.25;;
57443;SDS011;43289;52.962;6.196;2023-04-03T15:47:42;3.55;;;1.33;;
57443;SDS011;43289;52.962;6.196;2023-04-03T15:50:08;4.95;;;1.65;;
57443;SDS011;43289;52.962;6.196;2023-04-03T15:52:34;3.63;;;1.35;;
57443;SDS011;43289;52.962;6.196;2023-04-03T15:55:03;3.83;;;1.55;;
57443;SDS011;43289;52.962;6.196;2023-04-03T15:57:30;3.03;;;1.45;;
57443;SDS011;43289;52.962;6.196;2023-04-03T15:59:55;3.65;;;1.30;;
57443;SDS011;43289;52.962;6.196;2023-04-03T16:02:22;4.75;;;1.75;;
57443;SDS011;43289;52.962;6.196;2023-04-03T16:04:48;5.18;;;1.67;;
57443;SDS011;43289;52.962;6.196;2023-04-03T16:07:14;2.60;;;1.05;;
57443;SDS011;43289;52.962;6.196;2023-04-03T16:09:40;1.63;;;1.20;;
57443;SDS011;43289;52.962;6.196;2023-04-03T16:12:06;2.80;;;1.13;;
57443;SDS011;43289;52.962;6.196;2023-04-03T16:14:32;2.85;;;1.10;;
57443;SDS011;43289;52.962;6.196;2023-04-03T16:16:58;3.00;;;1.20;;
57443;SDS011;43289;52.962;6.196;2023-04-03T16:19:24;4.10;;;1.48;;
57443;SDS011;43289;52.962;6.196;2023-04-03T16:21:51;4.60;;;1.50;;
57443;SDS011;43289;52.962;6.196;2023-04-03T16:24:18;2.60;;;1.30;;
57443;SDS011;43289;52.962;6.196;2023-04-03T16:26:44;3.97;;;1.20;;
57443;SDS011;43289;52.962;6.196;2023-04-03T16:29:10;3.75;;;1.05;;
57443;SDS011;43289;52.962;6.196;2023-04-03T16:31:36;2.90;;;1.30;;
57443;SDS011;43289;52.962;6.196;2023-04-03T16:34:02;1.98;;;1.10;;
57443;SDS011;43289;52.962;6.196;2023-04-03T16:36:28;3.78;;;1.48;;
57443;SDS011;43289;52.962;6.196;2023-04-03T16:38:54;3.20;;;1.30;;
57443;SDS011;43289;52.962;6.196;2023-04-03T16:41:20;3.17;;;1.27;;
57443;SDS011;43289;52.962;6.196;2023-04-03T16:43:46;2.10;;;1.05;;
57443;SDS011;43289;52.962;6.196;2023-04-03T16:46:12;3.15;;;1.40;;
57443;SDS011;43289;52.962;6.196;2023-04-03T16:48:38;3.05;;;1.35;;
57443;SDS011;43289;52.962;6.196;2023-04-03T16:51:04;2.50;;;1.23;;
57443;SDS011;43289;52.962;6.196;2023-04-03T16:53:30;2.42;;;1.30;;
57443;SDS011;43289;52.962;6.196;2023-04-03T16:55:59;5.35;;;1.58;;
57443;SDS011;43289;52.962;6.196;2023-04-03T16:58:25;3.78;;;2.10;;
57443;SDS011;43289;52.962;6.196;2023-04-03T17:00:51;2.45;;;1.42;;
57443;SDS011;43289;52.962;6.196;2023-04-03T17:03:21;3.30;;;1.58;;
57443;SDS011;43289;52.962;6.196;2023-04-03T17:05:50;2.88;;;1.50;;
57443;SDS011;43289;52.962;6.196;2023-04-03T17:08:17;3.65;;;1.48;;
57443;SDS011;43289;52.962;6.196;2023-04-03T17:10:43;4.95;;;1.67;;
57443;SDS011;43289;52.962;6.196;2023-04-03T17:13:09;4.20;;;1.42;;
57443;SDS011;43289;52.962;6.196;2023-04-03T17:15:35;2.97;;;1.40;;
57443;SDS011;43289;52.962;6.196;2023-04-03T17:18:03;2.53;;;1.35;;
57443;SDS011;43289;52.962;6.196;2023-04-03T17:20:30;2.97;;;1.42;;
57443;SDS011;43289;52.962;6.196;2023-04-03T17:22:58;4.30;;;1.75;;
57443;SDS011;43289;52.962;6.196;2023-04-03T17:25:24;1.50;;;1.02;;
57443;SDS011;43289;52.962;6.196;2023-04-03T17:27:50;3.60;;;1.40;;
57443;SDS011;43289;52.962;6.196;2023-04-03T17:30:16;2.38;;;1.10;;
57443;SDS011;43289;52.962;6.196;2023-04-03T17:32:42;2.83;;;1.20;;
57443;SDS011;43289;52.962;6.196;2023-04-03T17:35:09;3.72;;;1.67;;
57443;SDS011;43289;52.962;6.196;2023-04-03T17:37:35;2.80;;;1.00;;
57443;SDS011;43289;52.962;6.196;2023-04-03T17:40:02;3.50;;;1.30;;
57443;SDS011;43289;52.962;6.196;2023-04-03T17:42:39;2.20;;;0.95;;
57443;SDS011;43289;52.962;6.196;2023-04-03T17:45:05;2.28;;;1.20;;
57443;SDS011;43289;52.962;6.196;2023-04-03T17:47:32;2.13;;;1.00;;
57443;SDS011;43289;52.962;6.196;2023-04-03T17:50:03;3.08;;;1.58;;
57443;SDS011;43289;52.962;6.196;2023-04-03T17:52:30;2.38;;;1.13;;
57443;SDS011;43289;52.962;6.196;2023-04-03T17:54:56;2.90;;;1.33;;
57443;SDS011;43289;52.962;6.196;2023-04-03T17:57:22;3.20;;;1.10;;
57443;SDS011;43289;52.962;6.196;2023-04-03T17:59:48;2.42;;;1.15;;
57443;SDS011;43289;52.962;6.196;2023-04-03T18:02:14;3.08;;;1.10;;
57443;SDS011;43289;52.962;6.196;2023-04-03T18:04:41;2.08;;;1.20;;
57443;SDS011;43289;52.962;6.196;2023-04-03T18:07:08;2.97;;;1.30;;
57443;SDS011;43289;52.962;6.196;2023-04-03T18:09:36;3.97;;;1.63;;
57443;SDS011;43289;52.962;6.196;2023-04-03T18:12:04;3.95;;;1.90;;